sensor_id;sensor_type;location;lat;lon;timestamp;P1;durP1;ratioP1;P2;durP2;ratioP2
37955;SDS011;23776;51.592;7.180;2023-07-20T00:00:08;7.85;;;4.60;;
37955;SDS011;23776;51.592;7.180;2023-07-20T00:02:35;5.57;;;3.70;;
37955;SDS011;23776;51.592;7.180;2023-07-20T00:05:00;9.07;;;4.18;;
37955;SDS011;23776;51.592;7.180;2023-07-20T00:07:26;7.43;;;4.05;;
37955;SDS011;23776;51.592;7.180;2023-07-20T00:09:52;9.52;;;4.70;;
37955;SDS011;23776;51.592;7.180;2023-07-20T00:12:18;7.22;;;3.80;;
37955;SDS011;23776;51.592;7.180;2023-07-20T00:14:44;8.20;;;4.20;;
37955;SDS011;23776;51.592;7.180;2023-07-20T00:17:10;8.02;;;3.97;;
37955;SDS011;23776;51.592;7.180;2023-07-20T00:19:36;6.63;;;3.72;;
37955;SDS011;23776;51.592;7.180;2023-07-20T00:22:02;9.93;;;4.55;;
37955;SDS011;23776;51.592;7.180;2023-07-20T00:24:30;5.47;;;3.88;;
37955;SDS011;23776;51.592;7.180;2023-07-20T00:26:55;8.15;;;4.18;;
37955;SDS011;23776;51.592;7.180;2023-07-20T00:29:21;9.02;;;4.13;;
37955;SDS011;23776;51.592;7.180;2023-07-20T00:31:47;8.60;;;3.90;;
37955;SDS011;23776;51.592;7.180;2023-07-20T00:34:14;7.65;;;3.08;;
37955;SDS011;23776;51.592;7.180;2023-07-20T00:36:39;6.40;;;4.05;;
37955;SDS011;23776;51.592;7.180;2023-07-20T00:39:06;10.55;;;3.80;;
37955;SDS011;23776;51.592;7.180;2023-07-20T00:41:32;7.20;;;3.83;;
37955;SDS011;23776;51.592;7.180;2023-07-20T00:43:58;7.72;;;4.03;;
37955;SDS011;23776;51.592;7.180;2023-07-20T00:46:24;5.25;;;3.28;;
37955;SDS011;23776;51.592;7.180;2023-07-20T00:48:50;8.35;;;3.75;;
37955;SDS011;23776;51.592;7.180;2023-07-20T00:51:17;9.32;;;2.92;;
37955;SDS011;23776;51.592;7.180;2023-07-20T00:53:43;6.63;;;3.50;;
37955;SDS011;23776;51.592;7.180;2023-07-20T00:56:09;8.43;;;3.53;;
37955;SDS011;23776;51.592;7.180;2023-07-20T00:58:35;8.27;;;3.92;;
37955;SDS011;23776;51.592;7.180;2023-07-20T01:01:01;8.38;;;4.30;;
37955;SDS011;23776;51.592;7.180;2023-07-20T01:03:27;8.05;;;4.65;;
37955;SDS011;23776;51.592;7.180;2023-07-20T01:05:54;11.02;;;4.78;;
37955;SDS011;23776;51.592;7.180;2023-07-20T01:11:19;10.02;;;4.03;;
37955;SDS011;23776;51.592;7.180;2023-07-20T01:13:57;13.50;;;3.78;;
37955;SDS011;23776;51.592;7.180;2023-07-20T01:16:23;9.25;;;4.90;;
37955;SDS011;23776;51.592;7.180;2023-07-20T01:18:49;11.95;;;4.63;;
37955;SDS011;23776;51.592;7.180;2023-07-20T01:21:18;8.23;;;3.95;;
37955;SDS011;23776;51.592;7.180;2023-07-20T01:26:37;10.13;;;4.82;;
37955;SDS011;23776;51.592;7.180;2023-07-20T01:32:07;12.13;;;4.88;;
37955;SDS011;23776;51.592;7.180;2023-07-20T01:34:35;16.33;;;5.32;;
37955;SDS011;23776;51.592;7.180;2023-07-20T01:37:01;10.57;;;4.47;;
37955;SDS011;23776;51.592;7.180;2023-07-20T01:39:28;7.88;;;4.72;;
37955;SDS011;23776;51.592;7.180;2023-07-20T01:41:55;12.75;;;5.82;;
37955;SDS011;23776;51.592;7.180;2023-07-20T01:44:21;11.75;;;4.80;;
37955;SDS011;23776;51.592;7.180;2023-07-20T01:46:47;10.07;;;4.93;;
37955;SDS011;23776;51.592;7.180;2023-07-20T01:49:12;10.95;;;5.13;;
37955;SDS011;23776;51.592;7.180;2023-07-20T01:51:38;8.90;;;5.50;;
37955;SDS011;23776;51.592;7.180;2023-07-20T01:54:05;9.23;;;4.78;;
37955;SDS011;23776;51.592;7.180;2023-07-20T01:56:31;8.75;;;5.57;;
37955;SDS011;23776;51.592;7.180;2023-07-20T01:58:56;10.65;;;4.88;;
37955;SDS011;23776;51.592;7.180;2023-07-20T02:01:22;11.25;;;4.65;;
37955;SDS011;23776;51.592;7.180;2023-07-20T02:03:48;16.05;;;5.10;;
37955;SDS011;23776;51.592;7.180;2023-07-20T02:06:14;9.80;;;4.78;;
37955;SDS011;23776;51.592;7.180;2023-07-20T02:08:40;10.10;;;4.68;;
37955;SDS011;23776;51.592;7.180;2023-07-20T02:11:06;10.98;;;5.53;;
37955;SDS011;23776;51.592;7.180;2023-07-20T02:13:32;15.65;;;6.55;;
37955;SDS011;23776;51.592;7.180;2023-07-20T02:15:57;13.68;;;7.65;;
37955;SDS011;23776;51.592;7.180;2023-07-20T02:18:23;16.38;;;7.03;;
37955;SDS011;23776;51.592;7.180;2023-07-20T02:20:49;11.98;;;5.78;;
37955;SDS011;23776;51.592;7.180;2023-07-20T02:23:17;16.15;;;7.03;;
37955;SDS011;23776;51.592;7.180;2023-07-20T02:25:43;11.07;;;6.93;;
37955;SDS011;23776;51.592;7.180;2023-07-20T02:28:13;14.45;;;8.27;;
37955;SDS011;23776;51.592;7.180;2023-07-20T02:30:39;15.98;;;7.53;;
37955;SDS011;23776;51.592;7.180;2023-07-20T02:33:05;16.23;;;7.78;;
37955;SDS011;23776;51.592;7.180;2023-07-20T02:35:32;18.17;;;8.23;;
37955;SDS011;23776;51.592;7.180;2023-07-20T02:37:57;18.67;;;8.65;;
37955;SDS011;23776;51.592;7.180;2023-07-20T02:40:23;18.48;;;8.73;;
37955;SDS011;23776;51.592;7.180;2023-07-20T02:42:49;17.08;;;8.50;;
37955;SDS011;23776;51.592;7.180;2023-07-20T02:45:15;14.18;;;8.23;;
37955;SDS011;23776;51.592;7.180;2023-07-20T02:47:41;22.38;;;9.95;;
37955;SDS011;23776;51.592;7.180;2023-07-20T02:50:07;14.95;;;9.35;;
37955;SDS011;23776;51.592;7.180;2023-07-20T02:52:33;20.45;;;9.82;;
37955;SDS011;23776;51.592;7.180;2023-07-20T02:54:59;20.67;;;10.30;;
37955;SDS011;23776;51.592;7.180;2023-07-20T02:57:25;16.02;;;9.85;;
37955;SDS011;23776;51.592;7.180;2023-07-20T02:59:52;18.80;;;9.75;;
37955;SDS011;23776;51.592;7.180;2023-07-20T03:02:17;18.88;;;10.18;;
37955;SDS011;23776;51.592;7.180;2023-07-20T03:04:43;26.60;;;11.93;;
37955;SDS011;23776;51.592;7.180;2023-07-20T03:07:09;22.60;;;11.35;;
37955;SDS011;23776;51.592;7.180;2023-07-20T03:09:35;22.48;;;11.13;;
37955;SDS011;23776;51.592;7.180;2023-07-20T03:12:01;25.38;;;12.40;;
37955;SDS011;23776;51.592;7.180;2023-07-20T03:14:29;22.00;;;11.23;;
37955;SDS011;23776;51.592;7.180;2023-07-20T03:16:55;23.42;;;12.38;;
37955;SDS011;23776;51.592;7.180;2023-07-20T03:19:21;19.00;;;10.68;;
37955;SDS011;23776;51.592;7.180;2023-07-20T03:21:47;25.35;;;12.93;;
37955;SDS011;23776;51.592;7.180;2023-07-20T03:24:13;26.67;;;13.05;;
37955;SDS011;23776;51.592;7.180;2023-07-20T03:26:39;19.98;;;11.63;;
37955;SDS011;23776;51.592;7.180;2023-07-20T03:29:05;24.70;;;12.48;;
37955;SDS011;23776;51.592;7.180;2023-07-20T03:31:31;21.75;;;12.88;;
37955;SDS011;23776;51.592;7.180;2023-07-20T03:33:57;23.30;;;13.43;;
37955;SDS011;23776;51.592;7.180;2023-07-20T03:36:23;25.80;;;14.43;;
37955;SDS011;23776;51.592;7.180;2023-07-20T03:38:49;24.80;;;14.27;;
37955;SDS011;23776;51.592;7.180;2023-07-20T03:41:16;28.27;;;16.40;;
37955;SDS011;23776;51.592;7.180;2023-07-20T03:43:42;29.60;;;14.65;;
37955;SDS011;23776;51.592;7.180;2023-07-20T03:46:08;27.90;;;14.20;;
37955;SDS011;23776;51.592;7.180;2023-07-20T03:48:34;27.55;;;16.75;;
37955;SDS011;23776;51.592;7.180;2023-07-20T03:51:00;34.70;;;17.98;;
37955;SDS011;23776;51.592;7.180;2023-07-20T03:53:26;28.42;;;17.73;;
37955;SDS011;23776;51.592;7.180;2023-07-20T03:55:52;27.73;;;16.75;;
37955;SDS011;23776;51.592;7.180;2023-07-20T03:58:20;40.75;;;21.50;;
37955;SDS011;23776;51.592;7.180;2023-07-20T04:00:50;40.88;;;22.05;;
37955;SDS011;23776;51.592;7.180;2023-07-20T04:03:20;32.08;;;17.45;;
37955;SDS011;23776;51.592;7.180;2023-07-20T04:05:46;38.65;;;19.38;;
37955;SDS011;23776;51.592;7.180;2023-07-20T04:08:11;38.20;;;20.73;;
37955;SDS011;23776;51.592;7.180;2023-07-20T04:10:38;40.45;;;22.25;;
37955;SDS011;23776;51.592;7.180;2023-07-20T04:13:04;39.95;;;22.63;;
37955;SDS011;23776;51.592;7.180;2023-07-20T04:15:30;41.78;;;23.90;;
37955;SDS011;23776;51.592;7.180;2023-07-20T04:17:56;34.17;;;20.55;;
37955;SDS011;23776;51.592;7.180;2023-07-20T04:20:25;38.22;;;21.45;;
37955;SDS011;23776;51.592;7.180;2023-07-20T04:22:50;35.65;;;21.40;;
37955;SDS011;23776;51.592;7.180;2023-07-20T04:25:17;38.40;;;21.55;;
37955;SDS011;23776;51.592;7.180;2023-07-20T04:27:43;35.33;;;19.13;;
37955;SDS011;23776;51.592;7.180;2023-07-20T04:30:09;31.45;;;18.65;;
37955;SDS011;23776;51.592;7.180;2023-07-20T04:32:36;31.60;;;18.38;;
37955;SDS011;23776;51.592;7.180;2023-07-20T04:35:05;29.50;;;17.95;;
37955;SDS011;23776;51.592;7.180;2023-07-20T04:37:32;28.63;;;16.52;;
37955;SDS011;23776;51.592;7.180;2023-07-20T04:39:58;27.75;;;16.55;;
37955;SDS011;23776;51.592;7.180;2023-07-20T04:42:23;26.05;;;15.98;;
37955;SDS011;23776;51.592;7.180;2023-07-20T04:44:49;27.13;;;16.67;;
37955;SDS011;23776;51.592;7.180;2023-07-20T04:47:15;24.48;;;16.08;;
37955;SDS011;23776;51.592;7.180;2023-07-20T04:49:41;23.83;;;14.95;;
37955;SDS011;23776;51.592;7.180;2023-07-20T04:52:07;23.67;;;15.15;;
37955;SDS011;23776;51.592;7.180;2023-07-20T04:54:33;26.90;;;16.38;;
37955;SDS011;23776;51.592;7.180;2023-07-20T04:56:59;30.63;;;16.30;;
37955;SDS011;23776;51.592;7.180;2023-07-20T04:59:25;26.58;;;16.27;;
37955;SDS011;23776;51.592;7.180;2023-07-20T05:01:51;24.05;;;15.80;;
37955;SDS011;23776;51.592;7.180;2023-07-20T05:04:17;22.33;;;14.45;;
37955;SDS011;23776;51.592;7.180;2023-07-20T05:06:43;24.42;;;14.15;;
37955;SDS011;23776;51.592;7.180;2023-07-20T05:09:09;24.85;;;15.05;;
37955;SDS011;23776;51.592;7.180;2023-07-20T05:11:35;21.65;;;13.38;;
37955;SDS011;23776;51.592;7.180;2023-07-20T05:14:01;22.40;;;13.45;;
37955;SDS011;23776;51.592;7.180;2023-07-20T05:16:27;26.25;;;13.77;;
37955;SDS011;23776;51.592;7.180;2023-07-20T05:18:53;21.90;;;13.02;;
37955;SDS011;23776;51.592;7.180;2023-07-20T05:21:19;25.65;;;13.38;;
37955;SDS011;23776;51.592;7.180;2023-07-20T05:23:45;21.95;;;13.07;;
37955;SDS011;23776;51.592;7.180;2023-07-20T05:26:11;16.15;;;11.15;;
37955;SDS011;23776;51.592;7.180;2023-07-20T05:28:37;16.67;;;11.05;;
37955;SDS011;23776;51.592;7.180;2023-07-20T05:31:03;19.40;;;10.77;;
37955;SDS011;23776;51.592;7.180;2023-07-20T05:33:30;18.80;;;11.60;;
37955;SDS011;23776;51.592;7.180;2023-07-20T05:35:56;18.65;;;11.00;;
37955;SDS011;23776;51.592;7.180;2023-07-20T05:38:22;14.98;;;8.95;;
37955;SDS011;23776;51.592;7.180;2023-07-20T05:40:48;12.32;;;8.57;;
37955;SDS011;23776;51.592;7.180;2023-07-20T05:43:14;16.45;;;9.90;;
37955;SDS011;23776;51.592;7.180;2023-07-20T05:45:43;11.65;;;8.13;;
37955;SDS011;23776;51.592;7.180;2023-07-20T05:48:10;10.23;;;7.18;;
37955;SDS011;23776;51.592;7.180;2023-07-20T05:50:37;9.98;;;7.18;;
37955;SDS011;23776;51.592;7.180;2023-07-20T05:53:03;10.80;;;6.53;;
37955;SDS011;23776;51.592;7.180;2023-07-20T05:55:28;11.98;;;7.40;;
37955;SDS011;23776;51.592;7.180;2023-07-20T05:57:55;16.17;;;7.20;;
37955;SDS011;23776;51.592;7.180;2023-07-20T06:00:21;11.63;;;8.02;;
37955;SDS011;23776;51.592;7.180;2023-07-20T06:02:51;7.10;;;5.88;;
37955;SDS011;23776;51.592;7.180;2023-07-20T06:05:18;8.50;;;6.25;;
37955;SDS011;23776;51.592;7.180;2023-07-20T06:07:45;9.20;;;5.30;;
37955;SDS011;23776;51.592;7.180;2023-07-20T06:10:11;12.07;;;5.85;;
37955;SDS011;23776;51.592;7.180;2023-07-20T06:12:37;6.70;;;5.13;;
37955;SDS011;23776;51.592;7.180;2023-07-20T06:15:03;8.23;;;5.75;;
37955;SDS011;23776;51.592;7.180;2023-07-20T06:17:30;7.20;;;5.05;;
37955;SDS011;23776;51.592;7.180;2023-07-20T06:19:56;7.82;;;5.05;;
37955;SDS011;23776;51.592;7.180;2023-07-20T06:22:22;6.95;;;4.85;;
37955;SDS011;23776;51.592;7.180;2023-07-20T06:24:48;7.68;;;5.05;;
37955;SDS011;23776;51.592;7.180;2023-07-20T06:27:14;8.13;;;4.93;;
37955;SDS011;23776;51.592;7.180;2023-07-20T06:29:40;7.38;;;5.10;;
37955;SDS011;23776;51.592;7.180;2023-07-20T06:32:06;5.53;;;3.75;;
37955;SDS011;23776;51.592;7.180;2023-07-20T06:34:32;5.60;;;3.75;;
37955;SDS011;23776;51.592;7.180;2023-07-20T06:37:02;6.18;;;4.13;;
37955;SDS011;23776;51.592;7.180;2023-07-20T06:39:29;5.13;;;3.30;;
37955;SDS011;23776;51.592;7.180;2023-07-20T06:41:54;6.22;;;2.80;;
37955;SDS011;23776;51.592;7.180;2023-07-20T06:44:20;6.03;;;2.80;;
37955;SDS011;23776;51.592;7.180;2023-07-20T06:46:47;3.80;;;2.63;;
37955;SDS011;23776;51.592;7.180;2023-07-20T06:49:23;3.40;;;2.50;;
37955;SDS011;23776;51.592;7.180;2023-07-20T06:51:50;3.33;;;2.60;;
37955;SDS011;23776;51.592;7.180;2023-07-20T06:54:16;3.20;;;2.10;;
37955;SDS011;23776;51.592;7.180;2023-07-20T06:56:41;3.60;;;2.65;;
37955;SDS011;23776;51.592;7.180;2023-07-20T06:59:07;6.25;;;2.90;;
37955;SDS011;23776;51.592;7.180;2023-07-20T07:01:33;5.20;;;2.50;;
37955;SDS011;23776;51.592;7.180;2023-07-20T07:03:59;3.67;;;2.20;;
37955;SDS011;23776;51.592;7.180;2023-07-20T07:06:25;2.08;;;1.88;;
37955;SDS011;23776;51.592;7.180;2023-07-20T07:08:52;3.05;;;2.30;;
37955;SDS011;23776;51.592;7.180;2023-07-20T07:11:18;6.28;;;4.97;;
37955;SDS011;23776;51.592;7.180;2023-07-20T07:13:44;7.15;;;5.53;;
37955;SDS011;23776;51.592;7.180;2023-07-20T07:16:12;5.95;;;4.55;;
37955;SDS011;23776;51.592;7.180;2023-07-20T07:18:39;5.90;;;3.78;;
37955;SDS011;23776;51.592;7.180;2023-07-20T07:21:05;7.68;;;4.78;;
37955;SDS011;23776;51.592;7.180;2023-07-20T07:23:32;4.65;;;3.38;;
37955;SDS011;23776;51.592;7.180;2023-07-20T07:25:58;3.60;;;2.22;;
37955;SDS011;23776;51.592;7.180;2023-07-20T07:28:23;3.65;;;1.88;;
37955;SDS011;23776;51.592;7.180;2023-07-20T07:30:49;2.72;;;1.83;;
37955;SDS011;23776;51.592;7.180;2023-07-20T07:33:15;3.40;;;2.00;;
37955;SDS011;23776;51.592;7.180;2023-07-20T07:35:40;4.00;;;2.30;;
37955;SDS011;23776;51.592;7.180;2023-07-20T07:38:06;2.40;;;1.67;;
37955;SDS011;23776;51.592;7.180;2023-07-20T07:40:32;2.30;;;1.67;;
37955;SDS011;23776;51.592;7.180;2023-07-20T07:42:58;2.08;;;1.73;;
37955;SDS011;23776;51.592;7.180;2023-07-20T07:45:24;2.13;;;1.70;;
37955;SDS011;23776;51.592;7.180;2023-07-20T07:47:50;4.30;;;1.88;;
37955;SDS011;23776;51.592;7.180;2023-07-20T07:50:16;3.40;;;1.50;;
37955;SDS011;23776;51.592;7.180;2023-07-20T07:52:42;2.75;;;1.40;;
37955;SDS011;23776;51.592;7.180;2023-07-20T07:55:08;1.83;;;1.40;;
37955;SDS011;23776;51.592;7.180;2023-07-20T07:57:34;3.92;;;1.75;;
37955;SDS011;23776;51.592;7.180;2023-07-20T08:00:00;5.60;;;2.35;;
37955;SDS011;23776;51.592;7.180;2023-07-20T08:02:26;2.45;;;1.33;;
37955;SDS011;23776;51.592;7.180;2023-07-20T08:04:52;2.00;;;1.50;;
37955;SDS011;23776;51.592;7.180;2023-07-20T08:07:18;3.35;;;1.95;;
37955;SDS011;23776;51.592;7.180;2023-07-20T08:09:44;2.03;;;1.65;;
37955;SDS011;23776;51.592;7.180;2023-07-20T08:12:10;9.25;;;4.88;;
37955;SDS011;23776;51.592;7.180;2023-07-20T08:14:36;6.70;;;4.88;;
37955;SDS011;23776;51.592;7.180;2023-07-20T08:17:02;4.15;;;3.75;;
37955;SDS011;23776;51.592;7.180;2023-07-20T08:19:27;4.15;;;3.60;;
37955;SDS011;23776;51.592;7.180;2023-07-20T08:21:53;3.83;;;3.28;;
37955;SDS011;23776;51.592;7.180;2023-07-20T08:24:19;4.75;;;3.67;;
37955;SDS011;23776;51.592;7.180;2023-07-20T08:26:44;3.55;;;3.25;;
37955;SDS011;23776;51.592;7.180;2023-07-20T08:29:10;6.63;;;3.90;;
37955;SDS011;23776;51.592;7.180;2023-07-20T08:31:36;5.25;;;4.00;;
37955;SDS011;23776;51.592;7.180;2023-07-20T08:34:02;6.50;;;3.47;;
37955;SDS011;23776;51.592;7.180;2023-07-20T08:36:28;6.50;;;3.35;;
37955;SDS011;23776;51.592;7.180;2023-07-20T08:38:54;6.03;;;3.65;;
37955;SDS011;23776;51.592;7.180;2023-07-20T08:41:20;5.88;;;4.03;;
37955;SDS011;23776;51.592;7.180;2023-07-20T08:43:46;3.55;;;2.92;;
37955;SDS011;23776;51.592;7.180;2023-07-20T08:46:12;3.83;;;2.40;;
37955;SDS011;23776;51.592;7.180;2023-07-20T08:48:39;4.53;;;1.80;;
37955;SDS011;23776;51.592;7.180;2023-07-20T08:51:06;2.03;;;1.30;;
37955;SDS011;23776;51.592;7.180;2023-07-20T08:53:32;6.90;;;1.38;;
37955;SDS011;23776;51.592;7.180;2023-07-20T08:55:59;1.70;;;1.20;;
37955;SDS011;23776;51.592;7.180;2023-07-20T08:58:26;1.75;;;1.10;;
37955;SDS011;23776;51.592;7.180;2023-07-20T09:00:53;0.60;;;0.60;;
37955;SDS011;23776;51.592;7.180;2023-07-20T09:03:20;0.98;;;0.82;;
37955;SDS011;23776;51.592;7.180;2023-07-20T09:05:46;3.10;;;1.10;;
37955;SDS011;23776;51.592;7.180;2023-07-20T09:08:12;2.25;;;0.70;;
37955;SDS011;23776;51.592;7.180;2023-07-20T09:10:38;3.75;;;1.30;;
37955;SDS011;23776;51.592;7.180;2023-07-20T09:13:04;2.50;;;2.17;;
37955;SDS011;23776;51.592;7.180;2023-07-20T09:15:30;2.88;;;1.25;;
37955;SDS011;23776;51.592;7.180;2023-07-20T09:17:56;2.85;;;1.10;;
37955;SDS011;23776;51.592;7.180;2023-07-20T09:20:27;2.83;;;1.30;;
37955;SDS011;23776;51.592;7.180;2023-07-20T09:22:55;4.55;;;1.58;;
37955;SDS011;23776;51.592;7.180;2023-07-20T09:25:21;2.42;;;1.17;;
37955;SDS011;23776;51.592;7.180;2023-07-20T09:27:48;1.40;;;0.93;;
37955;SDS011;23776;51.592;7.180;2023-07-20T09:30:14;1.85;;;1.05;;
37955;SDS011;23776;51.592;7.180;2023-07-20T09:32:45;0.90;;;0.90;;
37955;SDS011;23776;51.592;7.180;2023-07-20T09:35:21;1.55;;;1.40;;
37955;SDS011;23776;51.592;7.180;2023-07-20T09:40:19;5.65;;;3.20;;
37955;SDS011;23776;51.592;7.180;2023-07-20T09:42:45;6.93;;;1.85;;
37955;SDS011;23776;51.592;7.180;2023-07-20T09:45:12;2.03;;;1.55;;
37955;SDS011;23776;51.592;7.180;2023-07-20T09:47:38;3.10;;;1.63;;
37955;SDS011;23776;51.592;7.180;2023-07-20T09:50:04;3.30;;;1.60;;
37955;SDS011;23776;51.592;7.180;2023-07-20T09:52:40;2.67;;;2.17;;
37955;SDS011;23776;51.592;7.180;2023-07-20T09:55:07;3.38;;;1.83;;
37955;SDS011;23776;51.592;7.180;2023-07-20T09:57:33;2.15;;;1.95;;
37955;SDS011;23776;51.592;7.180;2023-07-20T10:00:01;1.50;;;1.40;;
37955;SDS011;23776;51.592;7.180;2023-07-20T10:02:33;1.67;;;1.40;;
37955;SDS011;23776;51.592;7.180;2023-07-20T10:05:02;2.28;;;1.60;;
37955;SDS011;23776;51.592;7.180;2023-07-20T10:07:33;1.35;;;1.13;;
37955;SDS011;23776;51.592;7.180;2023-07-20T10:10:01;2.53;;;1.40;;
37955;SDS011;23776;51.592;7.180;2023-07-20T10:12:28;1.30;;;1.00;;
37955;SDS011;23776;51.592;7.180;2023-07-20T10:15:16;2.75;;;1.75;;
37955;SDS011;23776;51.592;7.180;2023-07-20T10:17:53;2.85;;;1.63;;
37955;SDS011;23776;51.592;7.180;2023-07-20T10:22:54;1.65;;;1.00;;
37955;SDS011;23776;51.592;7.180;2023-07-20T10:25:22;2.78;;;0.90;;
37955;SDS011;23776;51.592;7.180;2023-07-20T10:27:48;1.80;;;0.93;;
37955;SDS011;23776;51.592;7.180;2023-07-20T10:30:14;2.28;;;0.95;;
37955;SDS011;23776;51.592;7.180;2023-07-20T10:32:40;1.08;;;0.90;;
37955;SDS011;23776;51.592;7.180;2023-07-20T10:35:16;3.95;;;1.00;;
37955;SDS011;23776;51.592;7.180;2023-07-20T10:42:50;2.10;;;1.17;;
37955;SDS011;23776;51.592;7.180;2023-07-20T10:45:19;1.30;;;1.10;;
37955;SDS011;23776;51.592;7.180;2023-07-20T10:47:45;1.25;;;0.90;;
37955;SDS011;23776;51.592;7.180;2023-07-20T10:50:11;5.80;;;1.55;;
37955;SDS011;23776;51.592;7.180;2023-07-20T10:52:37;1.80;;;0.90;;
37955;SDS011;23776;51.592;7.180;2023-07-20T10:55:16;0.85;;;0.70;;
37955;SDS011;23776;51.592;7.180;2023-07-20T10:57:41;1.63;;;0.95;;
37955;SDS011;23776;51.592;7.180;2023-07-20T11:00:11;1.10;;;0.80;;
37955;SDS011;23776;51.592;7.180;2023-07-20T11:02:48;3.17;;;0.88;;
37955;SDS011;23776;51.592;7.180;2023-07-20T11:08:03;1.30;;;1.10;;
37955;SDS011;23776;51.592;7.180;2023-07-20T11:10:34;3.22;;;0.95;;
37955;SDS011;23776;51.592;7.180;2023-07-20T11:16:01;2.75;;;0.88;;
37955;SDS011;23776;51.592;7.180;2023-07-20T11:18:32;0.80;;;0.70;;
37955;SDS011;23776;51.592;7.180;2023-07-20T11:20:58;1.85;;;0.75;;
37955;SDS011;23776;51.592;7.180;2023-07-20T11:23:24;1.98;;;0.68;;
37955;SDS011;23776;51.592;7.180;2023-07-20T11:25:51;1.10;;;0.70;;
37955;SDS011;23776;51.592;7.180;2023-07-20T11:28:17;0.70;;;0.43;;
37955;SDS011;23776;51.592;7.180;2023-07-20T11:30:42;1.13;;;0.50;;
37955;SDS011;23776;51.592;7.180;2023-07-20T11:33:08;2.22;;;0.70;;
37955;SDS011;23776;51.592;7.180;2023-07-20T11:35:35;0.57;;;0.50;;
37955;SDS011;23776;51.592;7.180;2023-07-20T11:38:06;1.85;;;0.70;;
37955;SDS011;23776;51.592;7.180;2023-07-20T11:40:32;3.65;;;0.70;;
37955;SDS011;23776;51.592;7.180;2023-07-20T11:42:58;2.65;;;1.23;;
37955;SDS011;23776;51.592;7.180;2023-07-20T11:45:25;1.60;;;0.65;;
37955;SDS011;23776;51.592;7.180;2023-07-20T11:47:50;1.55;;;1.10;;
37955;SDS011;23776;51.592;7.180;2023-07-20T11:50:16;0.95;;;0.50;;
37955;SDS011;23776;51.592;7.180;2023-07-20T11:52:42;1.23;;;0.80;;
37955;SDS011;23776;51.592;7.180;2023-07-20T11:55:09;1.38;;;0.80;;
37955;SDS011;23776;51.592;7.180;2023-07-20T11:57:36;0.82;;;0.60;;
37955;SDS011;23776;51.592;7.180;2023-07-20T12:00:03;0.82;;;0.47;;
37955;SDS011;23776;51.592;7.180;2023-07-20T12:02:34;0.50;;;0.50;;
37955;SDS011;23776;51.592;7.180;2023-07-20T12:05:00;2.35;;;0.82;;
37955;SDS011;23776;51.592;7.180;2023-07-20T12:07:28;1.33;;;0.88;;
37955;SDS011;23776;51.592;7.180;2023-07-20T12:10:07;2.60;;;0.60;;
37955;SDS011;23776;51.592;7.180;2023-07-20T12:12:40;0.68;;;0.63;;
37955;SDS011;23776;51.592;7.180;2023-07-20T12:15:14;1.00;;;0.50;;
37955;SDS011;23776;51.592;7.180;2023-07-20T12:17:43;2.10;;;0.77;;
37955;SDS011;23776;51.592;7.180;2023-07-20T12:20:10;1.40;;;0.52;;
37955;SDS011;23776;51.592;7.180;2023-07-20T12:22:39;0.85;;;0.60;;
37955;SDS011;23776;51.592;7.180;2023-07-20T12:25:08;1.02;;;0.50;;
37955;SDS011;23776;51.592;7.180;2023-07-20T12:27:37;1.05;;;0.68;;
37955;SDS011;23776;51.592;7.180;2023-07-20T12:30:05;0.82;;;0.63;;
37955;SDS011;23776;51.592;7.180;2023-07-20T12:32:31;0.70;;;0.63;;
37955;SDS011;23776;51.592;7.180;2023-07-20T12:34:57;0.93;;;0.52;;
37955;SDS011;23776;51.592;7.180;2023-07-20T12:37:25;1.30;;;1.00;;
37955;SDS011;23776;51.592;7.180;2023-07-20T12:39:51;1.40;;;0.85;;
37955;SDS011;23776;51.592;7.180;2023-07-20T12:42:17;2.58;;;0.82;;
37955;SDS011;23776;51.592;7.180;2023-07-20T12:44:43;1.80;;;0.85;;
37955;SDS011;23776;51.592;7.180;2023-07-20T12:47:09;3.05;;;0.80;;
37955;SDS011;23776;51.592;7.180;2023-07-20T12:49:35;1.00;;;0.70;;
37955;SDS011;23776;51.592;7.180;2023-07-20T12:52:00;0.85;;;0.85;;
37955;SDS011;23776;51.592;7.180;2023-07-20T12:54:26;0.60;;;0.40;;
37955;SDS011;23776;51.592;7.180;2023-07-20T12:56:53;2.25;;;0.60;;
37955;SDS011;23776;51.592;7.180;2023-07-20T12:59:18;2.47;;;0.77;;
37955;SDS011;23776;51.592;7.180;2023-07-20T13:01:44;0.85;;;0.40;;
37955;SDS011;23776;51.592;7.180;2023-07-20T13:04:09;2.33;;;0.60;;
37955;SDS011;23776;51.592;7.180;2023-07-20T13:06:35;0.90;;;0.80;;
37955;SDS011;23776;51.592;7.180;2023-07-20T13:09:01;1.25;;;0.60;;
37955;SDS011;23776;51.592;7.180;2023-07-20T13:11:28;1.33;;;0.65;;
37955;SDS011;23776;51.592;7.180;2023-07-20T13:13:53;4.10;;;0.95;;
37955;SDS011;23776;51.592;7.180;2023-07-20T13:16:19;3.00;;;1.75;;
37955;SDS011;23776;51.592;7.180;2023-07-20T13:18:45;1.60;;;0.75;;
37955;SDS011;23776;51.592;7.180;2023-07-20T13:21:10;0.95;;;0.75;;
37955;SDS011;23776;51.592;7.180;2023-07-20T13:23:36;1.38;;;0.98;;
37955;SDS011;23776;51.592;7.180;2023-07-20T13:26:04;1.23;;;0.80;;
37955;SDS011;23776;51.592;7.180;2023-07-20T13:28:29;3.55;;;1.42;;
37955;SDS011;23776;51.592;7.180;2023-07-20T13:30:55;1.55;;;0.90;;
37955;SDS011;23776;51.592;7.180;2023-07-20T13:33:21;0.80;;;0.70;;
37955;SDS011;23776;51.592;7.180;2023-07-20T13:35:46;2.70;;;0.80;;
37955;SDS011;23776;51.592;7.180;2023-07-20T13:38:12;1.05;;;0.60;;
37955;SDS011;23776;51.592;7.180;2023-07-20T13:40:38;0.77;;;0.77;;
37955;SDS011;23776;51.592;7.180;2023-07-20T13:43:03;1.88;;;0.85;;
37955;SDS011;23776;51.592;7.180;2023-07-20T13:45:29;1.13;;;0.70;;
37955;SDS011;23776;51.592;7.180;2023-07-20T13:47:55;0.80;;;0.70;;
37955;SDS011;23776;51.592;7.180;2023-07-20T13:50:21;3.42;;;0.57;;
37955;SDS011;23776;51.592;7.180;2023-07-20T13:52:47;1.20;;;0.80;;
37955;SDS011;23776;51.592;7.180;2023-07-20T13:55:13;2.65;;;0.50;;
37955;SDS011;23776;51.592;7.180;2023-07-20T13:57:40;3.70;;;0.80;;
37955;SDS011;23776;51.592;7.180;2023-07-20T14:00:07;0.98;;;0.80;;
37955;SDS011;23776;51.592;7.180;2023-07-20T14:02:36;2.45;;;0.73;;
37955;SDS011;23776;51.592;7.180;2023-07-20T14:05:02;0.50;;;0.50;;
37955;SDS011;23776;51.592;7.180;2023-07-20T14:07:28;4.57;;;1.45;;
37955;SDS011;23776;51.592;7.180;2023-07-20T14:09:54;2.08;;;0.77;;
37955;SDS011;23776;51.592;7.180;2023-07-20T14:12:20;1.17;;;0.70;;
37955;SDS011;23776;51.592;7.180;2023-07-20T14:14:45;1.13;;;0.60;;
37955;SDS011;23776;51.592;7.180;2023-07-20T14:17:11;2.25;;;0.63;;
37955;SDS011;23776;51.592;7.180;2023-07-20T14:19:37;1.65;;;0.82;;
37955;SDS011;23776;51.592;7.180;2023-07-20T14:22:03;2.13;;;0.70;;
37955;SDS011;23776;51.592;7.180;2023-07-20T14:24:29;0.77;;;0.63;;
37955;SDS011;23776;51.592;7.180;2023-07-20T14:26:55;1.23;;;0.70;;
37955;SDS011;23776;51.592;7.180;2023-07-20T14:29:20;1.40;;;0.80;;
37955;SDS011;23776;51.592;7.180;2023-07-20T14:31:46;0.63;;;0.55;;
37955;SDS011;23776;51.592;7.180;2023-07-20T14:34:17;1.95;;;0.75;;
37955;SDS011;23776;51.592;7.180;2023-07-20T14:36:44;1.00;;;0.63;;
37955;SDS011;23776;51.592;7.180;2023-07-20T14:39:10;2.22;;;1.00;;
37955;SDS011;23776;51.592;7.180;2023-07-20T14:41:35;2.90;;;1.30;;
37955;SDS011;23776;51.592;7.180;2023-07-20T14:44:02;3.53;;;0.82;;
37955;SDS011;23776;51.592;7.180;2023-07-20T14:46:28;1.08;;;0.60;;
37955;SDS011;23776;51.592;7.180;2023-07-20T14:48:54;1.83;;;1.08;;
37955;SDS011;23776;51.592;7.180;2023-07-20T14:51:20;3.58;;;1.65;;
37955;SDS011;23776;51.592;7.180;2023-07-20T14:53:46;0.90;;;0.80;;
37955;SDS011;23776;51.592;7.180;2023-07-20T14:56:12;3.22;;;0.70;;
37955;SDS011;23776;51.592;7.180;2023-07-20T14:58:38;1.30;;;0.70;;
37955;SDS011;23776;51.592;7.180;2023-07-20T15:01:04;1.63;;;0.88;;